createdAt,value
2023-04-22T00:01:15.871Z,87.70
2023-04-22T00:04:18.192Z,87.80
2023-04-22T00:07:20.480Z,88.20
2023-04-22T00:10:22.542Z,88.40
2023-04-22T00:13:24.556Z,87.70
2023-04-22T00:16:26.914Z,88.00
2023-04-22T00:19:29.318Z,87.60
2023-04-22T00:22:31.747Z,87.70
2023-04-22T00:25:34.107Z,88.00
2023-04-22T00:28:36.082Z,87.80
2023-04-22T00:31:38.149Z,87.90
2023-04-22T00:34:40.182Z,87.70
2023-04-22T00:37:42.363Z,87.60
2023-04-22T00:40:46.826Z,87.90
2023-04-22T00:43:49.470Z,87.70
2023-04-22T00:46:51.721Z,88.80
2023-04-22T00:49:54.503Z,88.90
2023-04-22T00:52:56.440Z,89.10
2023-04-22T00:55:59.222Z,88.80
2023-04-22T00:59:03.870Z,88.80
2023-04-22T01:02:06.399Z,89.00
2023-04-22T01:05:08.921Z,88.50
2023-04-22T01:08:11.315Z,88.50
2023-04-22T01:11:14.083Z,87.80
2023-04-22T01:14:16.368Z,88.20
2023-04-22T01:17:18.460Z,88.20
2023-04-22T01:20:22.046Z,88.20
2023-04-22T01:23:24.024Z,87.70
2023-04-22T01:26:26.306Z,87.70
2023-04-22T01:29:28.668Z,87.70
2023-04-22T01:32:30.880Z,87.80
2023-04-22T01:35:33.016Z,87.90
2023-04-22T01:38:35.305Z,88.10
2023-04-22T01:41:38.537Z,88.20
2023-04-22T01:44:41.072Z,88.60
2023-04-22T01:47:43.367Z,88.40
2023-04-22T01:50:45.579Z,88.30
2023-04-22T01:53:49.662Z,88.20
2023-04-22T01:56:55.691Z,88.50
2023-04-22T02:00:00.396Z,88.30
2023-04-22T02:03:02.584Z,88.00
2023-04-22T02:06:05.282Z,88.50
2023-04-22T02:09:08.619Z,88.70
2023-04-22T02:12:10.753Z,88.40
2023-04-22T02:15:15.572Z,88.20
2023-04-22T02:18:17.671Z,88.10
2023-04-22T02:21:19.828Z,87.90
2023-04-22T02:24:22.099Z,88.30
2023-04-22T02:27:24.183Z,88.40
2023-04-22T02:30:29.854Z,88.00
2023-04-22T02:33:31.936Z,88.40
2023-04-22T02:36:36.352Z,88.30
2023-04-22T02:39:41.079Z,88.50
2023-04-22T02:42:43.433Z,88.40
2023-04-22T02:45:45.581Z,88.40
2023-04-22T02:48:48.078Z,88.20
2023-04-22T02:51:50.338Z,88.50
2023-04-22T02:54:52.550Z,88.30
2023-04-22T02:57:54.803Z,88.50
2023-04-22T03:00:56.991Z,88.20
2023-04-22T03:03:59.440Z,88.00
2023-04-22T03:07:02.101Z,87.80
2023-04-22T03:10:04.859Z,88.30
2023-04-22T03:16:50.824Z,87.80
2023-04-22T03:19:59.143Z,87.50
2023-04-22T03:23:01.352Z,87.60
2023-04-22T03:26:03.606Z,88.00
2023-04-22T03:29:05.779Z,88.30
2023-04-22T03:32:08.119Z,88.00
2023-04-22T03:35:11.885Z,87.90
2023-04-22T03:38:14.048Z,87.80
2023-04-22T03:41:16.098Z,88.30
2023-04-22T03:44:21.884Z,88.30
2023-04-22T03:47:24.760Z,88.00
2023-04-22T03:50:31.844Z,87.70
2023-04-22T03:53:37.096Z,87.90
2023-04-22T03:56:39.332Z,88.40
2023-04-22T03:59:42.035Z,88.40
2023-04-22T04:02:46.682Z,88.30
2023-04-22T04:05:55.546Z,88.80
2023-04-22T04:08:57.954Z,88.30
2023-04-22T04:12:00.141Z,88.20
2023-04-22T04:15:07.202Z,89.50
2023-04-22T04:18:10.297Z,88.50
2023-04-22T04:21:12.381Z,88.30
2023-04-22T04:24:21.747Z,88.10
2023-04-22T04:27:26.224Z,88.00
2023-04-22T04:30:33.565Z,88.30
2023-04-22T04:33:36.769Z,89.30
2023-04-22T04:36:38.778Z,89.00
2023-04-22T04:39:51.172Z,88.90
2023-04-22T04:42:56.999Z,88.80
2023-04-22T04:46:07.117Z,88.30
2023-04-22T04:49:13.668Z,88.20
2023-04-22T04:52:27.049Z,88.50
2023-04-22T04:55:29.105Z,88.40
2023-04-22T04:58:32.972Z,88.40
2023-04-22T05:02:01.200Z,88.50
2023-04-22T05:05:07.808Z,88.10
2023-04-22T05:08:11.753Z,88.10
2023-04-22T05:11:16.240Z,88.10
2023-04-22T05:14:21.959Z,88.40
2023-04-22T05:17:25.233Z,88.70
2023-04-22T05:20:27.998Z,88.30
2023-04-22T05:23:31.074Z,88.20
2023-04-22T05:26:35.252Z,88.10
2023-04-22T05:29:43.390Z,88.00
2023-04-22T05:32:47.432Z,88.00
2023-04-22T05:35:49.890Z,87.60
2023-04-22T05:38:51.944Z,88.20
2023-04-22T05:41:54.496Z,87.90
2023-04-22T05:44:57.035Z,87.60
2023-04-22T05:47:59.246Z,87.50
2023-04-22T05:51:06.038Z,87.20
2023-04-22T05:54:08.788Z,87.50
2023-04-22T05:57:11.190Z,87.40
2023-04-22T06:00:15.171Z,87.20
2023-04-22T06:03:21.875Z,86.40
2023-04-22T06:06:26.021Z,85.60
2023-04-22T06:09:28.924Z,83.50
2023-04-22T06:12:33.218Z,82.40
2023-04-22T06:15:35.252Z,82.20
2023-04-22T06:18:38.365Z,82.80
2023-04-22T06:21:44.892Z,83.20
2023-04-22T06:24:48.172Z,83.70
2023-04-22T06:27:51.542Z,83.40
2023-04-22T06:30:55.844Z,82.20
2023-04-22T06:34:00.264Z,79.80
2023-04-22T06:37:02.847Z,76.60
2023-04-22T06:40:05.484Z,74.50
2023-04-22T06:43:31.017Z,71.00
2023-04-22T06:46:42.542Z,68.60
2023-04-22T06:50:16.918Z,67.40
2023-04-22T06:53:27.379Z,69.00
2023-04-22T06:56:29.474Z,66.30
2023-04-22T06:59:31.562Z,64.20
2023-04-22T07:02:34.480Z,62.70
2023-04-22T07:05:39.555Z,59.90
2023-04-22T07:08:44.719Z,56.50
2023-04-22T07:11:46.772Z,55.40
2023-04-22T07:14:56.085Z,54.40
2023-04-22T07:17:58.353Z,53.60
2023-04-22T07:21:00.530Z,51.90
2023-04-22T07:24:02.652Z,50.40
2023-04-22T07:27:04.735Z,51.70
2023-04-22T07:30:08.600Z,49.20
2023-04-22T07:33:12.654Z,47.60
2023-04-22T07:36:15.269Z,51.70
2023-04-22T07:39:17.321Z,48.90
2023-04-22T07:42:19.452Z,50.80
2023-04-22T07:45:21.759Z,51.20
2023-04-22T07:48:23.626Z,51.30
2023-04-22T07:51:25.477Z,49.00
2023-04-22T07:54:27.782Z,49.50
2023-04-22T07:57:34.916Z,49.60
2023-04-22T08:00:36.921Z,46.90
2023-04-22T08:03:39.712Z,47.30
2023-04-22T08:06:41.927Z,46.30
2023-04-22T08:09:44.183Z,48.20
2023-04-22T08:12:46.154Z,48.80
2023-04-22T08:15:48.120Z,44.60
2023-04-22T08:18:50.184Z,45.30
2023-04-22T08:21:52.991Z,43.50
2023-04-22T08:24:54.985Z,42.90
2023-04-22T08:27:57.487Z,41.40
2023-04-22T08:30:59.636Z,40.70
2023-04-22T08:34:01.558Z,44.20
2023-04-22T08:37:03.528Z,42.50
2023-04-22T08:40:06.041Z,44.30
2023-04-22T08:43:08.591Z,43.00
2023-04-22T08:46:13.222Z,43.90
2023-04-22T08:49:24.855Z,44.10
2023-04-22T08:52:26.909Z,45.10
2023-04-22T08:55:29.156Z,44.90
2023-04-22T08:58:31.785Z,43.00
2023-04-22T09:01:34.588Z,43.70
2023-04-22T09:04:38.257Z,44.10
2023-04-22T09:07:40.662Z,41.00
2023-04-22T09:10:42.715Z,43.00
2023-04-22T09:13:44.797Z,41.70
2023-04-22T09:16:49.425Z,41.30
2023-04-22T09:20:04.780Z,38.30
2023-04-22T09:23:06.888Z,40.90
2023-04-22T09:26:09.080Z,40.20
2023-04-22T09:29:16.362Z,41.50
2023-04-22T09:32:18.878Z,41.00
2023-04-22T09:35:32.579Z,42.80
2023-04-22T09:38:34.459Z,44.50
2023-04-22T09:41:38.992Z,43.90
2023-04-22T09:44:41.096Z,42.10
2023-04-22T09:47:43.158Z,40.50
2023-04-22T09:50:51.131Z,40.50
2023-04-22T09:54:07.082Z,40.10
2023-04-22T09:57:09.428Z,40.60
2023-04-22T10:00:15.419Z,38.80
2023-04-22T10:03:18.024Z,40.60
2023-04-22T10:06:20.532Z,37.10
2023-04-22T10:09:25.502Z,38.40
2023-04-22T10:12:35.253Z,39.70
2023-04-22T10:15:44.704Z,40.20
2023-04-22T10:18:48.031Z,38.90
2023-04-22T10:21:56.124Z,39.70
2023-04-22T10:24:58.347Z,39.70
2023-04-22T10:28:11.102Z,38.70
2023-04-22T10:31:22.645Z,41.70
2023-04-22T10:34:24.939Z,39.50
2023-04-22T10:37:27.358Z,41.30
2023-04-22T10:40:29.614Z,40.80
2023-04-22T10:43:41.862Z,41.00
2023-04-22T10:46:52.983Z,40.60
2023-04-22T11:03:16.444Z,38.20
2023-04-22T11:06:21.914Z,37.60
2023-04-22T11:09:25.011Z,37.40
2023-04-22T11:12:36.092Z,36.90
2023-04-22T11:15:42.273Z,38.30
2023-04-22T11:18:47.177Z,36.70
2023-04-22T11:21:51.175Z,37.00
2023-04-22T11:25:01.172Z,36.00
2023-04-22T11:28:03.190Z,36.70
2023-04-22T11:31:09.320Z,36.50
2023-04-22T11:34:12.845Z,37.20
2023-04-22T11:37:19.486Z,35.90
2023-04-22T11:40:35.334Z,36.70
2023-04-22T11:43:51.985Z,34.70
2023-04-22T11:46:57.451Z,35.90
2023-04-22T11:50:07.687Z,37.80
2023-04-22T11:53:20.464Z,36.30
2023-04-22T11:56:22.377Z,37.60
2023-04-22T11:59:27.388Z,39.30
2023-04-22T12:02:29.500Z,38.10
2023-04-22T12:05:44.705Z,39.20
2023-04-22T12:08:49.889Z,40.10
2023-04-22T12:11:52.232Z,39.00
2023-04-22T12:14:56.776Z,39.60
2023-04-22T12:17:58.757Z,39.70
2023-04-22T12:21:22.548Z,38.90
2023-04-22T12:24:30.720Z,37.20
2023-04-22T12:27:38.010Z,40.80
2023-04-22T12:30:39.978Z,37.80
2023-04-22T12:33:42.642Z,38.90
2023-04-22T12:36:45.692Z,40.40
2023-04-22T12:39:48.621Z,40.70
2023-04-22T12:42:50.632Z,40.50
2023-04-22T12:45:52.657Z,40.00
2023-04-22T12:48:54.689Z,40.20
2023-04-22T12:51:56.641Z,39.70
2023-04-22T12:55:08.062Z,39.60
2023-04-22T12:58:10.016Z,38.00
2023-04-22T13:01:11.933Z,39.50
2023-04-22T13:04:14.367Z,37.60
2023-04-22T13:07:16.761Z,39.00
2023-04-22T13:10:18.833Z,39.30
2023-04-22T13:13:20.918Z,39.60
2023-04-22T13:16:22.991Z,40.50
2023-04-22T13:19:26.028Z,39.30
2023-04-22T13:22:32.056Z,38.30
2023-04-22T13:25:34.134Z,39.70
2023-04-22T13:28:39.375Z,39.20
2023-04-22T13:31:44.483Z,39.10
2023-04-22T13:34:47.176Z,38.40
2023-04-22T13:37:49.129Z,40.40
2023-04-22T13:40:51.096Z,40.60
2023-04-22T13:43:53.054Z,39.40
2023-04-22T13:46:55.166Z,41.00
2023-04-22T13:49:57.092Z,37.70
2023-04-22T13:52:59.060Z,37.70
2023-04-22T13:56:03.236Z,36.60
2023-04-22T13:59:05.295Z,37.40
2023-04-22T14:02:07.719Z,38.30
2023-04-22T14:05:09.986Z,40.70
2023-04-22T14:08:12.090Z,36.90
2023-04-22T14:11:14.289Z,37.10
2023-04-22T14:14:16.242Z,40.30
2023-04-22T14:17:18.206Z,38.80
2023-04-22T14:20:20.433Z,39.20
2023-04-22T14:23:22.407Z,39.90
2023-04-22T14:26:24.412Z,37.30
2023-04-22T14:29:26.342Z,37.50
2023-04-22T14:32:28.308Z,36.30
2023-04-22T14:35:30.289Z,38.80
2023-04-22T14:38:32.290Z,39.40
2023-04-22T14:41:37.055Z,40.80
2023-04-22T14:44:39.373Z,39.20
2023-04-22T14:47:41.456Z,40.80
2023-04-22T14:50:43.693Z,38.90
2023-04-22T14:53:45.627Z,39.10
2023-04-22T14:56:47.573Z,41.00
2023-04-22T14:59:49.667Z,39.30
2023-04-22T15:02:51.855Z,40.40
2023-04-22T15:05:57.819Z,40.90
2023-04-22T15:08:59.748Z,40.10
2023-04-22T15:12:04.116Z,40.50
2023-04-22T15:18:31.158Z,43.00
2023-04-22T15:21:33.291Z,41.90
2023-04-22T15:24:35.580Z,40.60
2023-04-22T15:27:38.802Z,41.00
2023-04-22T15:30:40.886Z,42.10
2023-04-22T15:33:43.248Z,43.50
2023-04-22T15:36:45.615Z,42.50
2023-04-22T15:39:48.497Z,42.10
2023-04-22T15:42:50.497Z,42.40
2023-04-22T15:45:52.583Z,43.50
2023-04-22T15:48:57.147Z,42.50
2023-04-22T15:51:59.130Z,43.60
2023-04-22T15:55:03.442Z,44.10
2023-04-22T15:58:05.449Z,45.00
2023-04-22T16:01:17.784Z,43.80
2023-04-22T16:04:20.780Z,43.40
2023-04-22T16:07:22.784Z,46.20
2023-04-22T16:10:24.790Z,46.90
2023-04-22T16:13:26.797Z,46.40
2023-04-22T16:16:28.866Z,48.60
2023-04-22T16:19:32.228Z,46.70
2023-04-22T16:22:34.224Z,47.30
2023-04-22T16:25:36.201Z,47.80
2023-04-22T16:28:38.130Z,44.80
2023-04-22T16:31:40.130Z,44.40
2023-04-22T16:34:42.408Z,46.10
2023-04-22T16:37:44.396Z,44.40
2023-04-22T16:40:47.235Z,46.00
2023-04-22T16:43:49.234Z,47.10
2023-04-22T16:46:51.316Z,47.00
2023-04-22T16:49:53.584Z,47.60
2023-04-22T16:52:56.283Z,46.30
2023-04-22T16:55:58.287Z,46.40
2023-04-22T16:59:00.305Z,46.20
2023-04-22T17:02:02.545Z,44.90
2023-04-22T17:05:04.801Z,45.20
2023-04-22T17:08:06.733Z,45.10
2023-04-22T17:11:08.584Z,45.30
2023-04-22T17:14:10.636Z,44.70
2023-04-22T17:17:15.241Z,45.10
2023-04-22T17:20:17.533Z,45.10
2023-04-22T17:23:19.629Z,45.80
2023-04-22T17:26:21.668Z,45.00
2023-04-22T17:29:23.622Z,46.10
2023-04-22T17:32:25.650Z,46.70
2023-04-22T17:35:27.686Z,46.70
2023-04-22T17:38:29.526Z,46.80
2023-04-22T17:41:31.646Z,46.40
2023-04-22T17:44:33.843Z,46.50
2023-04-22T17:47:35.929Z,47.00
2023-04-22T17:50:37.861Z,47.40
2023-04-22T17:53:41.208Z,47.50
2023-04-22T17:56:43.503Z,47.50
2023-04-22T17:59:48.904Z,48.30
2023-04-22T18:02:51.025Z,49.20
2023-04-22T18:05:53.331Z,49.70
2023-04-22T18:08:56.495Z,50.50
2023-04-22T18:11:58.513Z,51.20
2023-04-22T18:15:00.477Z,51.30
2023-04-22T18:18:03.056Z,51.70
2023-04-22T18:21:05.154Z,51.90
2023-04-22T18:24:07.048Z,52.50
2023-04-22T18:27:09.384Z,52.40
2023-04-22T18:30:11.619Z,53.10
2023-04-22T18:33:14.045Z,53.20
2023-04-22T18:36:16.093Z,54.00
2023-04-22T18:39:18.025Z,53.40
2023-04-22T18:42:20.073Z,53.90
2023-04-22T18:45:22.099Z,53.90
2023-04-22T18:48:24.072Z,54.30
2023-04-22T18:51:26.017Z,55.20
2023-04-22T18:54:37.182Z,55.10
2023-04-22T18:57:39.107Z,55.50
2023-04-22T19:00:41.148Z,56.70
2023-04-22T19:03:45.957Z,56.60
2023-04-22T19:06:47.955Z,57.00
2023-04-22T19:09:50.092Z,57.50
2023-04-22T19:12:51.976Z,57.80
2023-04-22T19:15:54.016Z,58.50
2023-04-22T19:18:56.219Z,58.40
2023-04-22T19:21:58.207Z,58.70
2023-04-22T19:25:00.698Z,59.00
2023-04-22T19:28:02.647Z,59.50
2023-04-22T19:31:04.876Z,59.90
2023-04-22T19:34:06.896Z,60.20
2023-04-22T19:37:08.997Z,60.20
2023-04-22T19:40:11.552Z,60.30
2023-04-22T19:43:13.803Z,61.20
2023-04-22T19:46:16.083Z,61.50
2023-04-22T19:49:18.812Z,61.60
2023-04-22T19:52:22.409Z,61.50
2023-04-22T19:55:24.529Z,62.50
2023-04-22T19:58:30.898Z,62.90
2023-04-22T20:01:33.691Z,63.10
2023-04-22T20:04:36.209Z,63.40
2023-04-22T20:07:39.994Z,63.10
2023-04-22T20:10:44.488Z,63.50
2023-04-22T20:13:47.968Z,63.60
2023-04-22T20:16:50.301Z,63.50
2023-04-22T20:19:52.575Z,64.00
2023-04-22T20:22:57.637Z,63.80
2023-04-22T20:26:00.216Z,63.30
2023-04-22T20:29:05.340Z,63.70
2023-04-22T20:32:07.709Z,63.50
2023-04-22T20:35:10.409Z,64.00
2023-04-22T20:38:13.499Z,64.40
2023-04-22T20:41:16.826Z,65.00
2023-04-22T20:44:18.762Z,65.10
2023-04-22T20:47:20.710Z,64.90
2023-04-22T20:50:22.784Z,65.70
2023-04-22T20:53:24.938Z,65.10
2023-04-22T20:56:26.844Z,65.20
2023-04-22T20:59:28.805Z,65.10
2023-04-22T21:02:32.274Z,65.70
2023-04-22T21:05:34.734Z,65.60
2023-04-22T21:08:38.508Z,65.80
2023-04-22T21:11:43.068Z,65.80
2023-04-22T21:14:45.708Z,66.70
2023-04-22T21:17:51.880Z,66.90
2023-04-22T21:20:56.273Z,67.30
2023-04-22T21:24:01.355Z,67.70
2023-04-22T21:27:03.576Z,67.50
2023-04-22T21:30:05.989Z,67.70
2023-04-22T21:33:08.146Z,67.90
2023-04-22T21:36:10.144Z,68.40
2023-04-22T21:39:12.154Z,68.10
2023-04-22T21:42:14.124Z,68.90
2023-04-22T21:45:16.180Z,68.50
2023-04-22T21:48:18.113Z,68.50
2023-04-22T21:51:21.010Z,68.60
2023-04-22T21:54:23.000Z,68.50
2023-04-22T21:57:25.434Z,69.10
2023-04-22T22:00:27.541Z,69.40
2023-04-22T22:03:29.860Z,70.30
2023-04-22T22:06:32.291Z,70.80
2023-04-22T22:09:34.264Z,71.30
2023-04-22T22:12:36.395Z,71.40
2023-04-22T22:15:38.388Z,71.30
2023-04-22T22:18:40.497Z,72.00
2023-04-22T22:21:42.610Z,71.80
2023-04-22T22:24:44.820Z,71.70
2023-04-22T22:27:46.976Z,72.10
2023-04-22T22:30:51.231Z,72.10
2023-04-22T22:33:53.218Z,71.90
2023-04-22T22:36:55.557Z,72.20
2023-04-22T22:39:57.425Z,72.10
2023-04-22T22:42:59.335Z,72.30
2023-04-22T22:46:01.769Z,72.60
2023-04-22T22:49:03.781Z,72.70
2023-04-22T22:52:12.938Z,73.20
2023-04-22T22:55:14.892Z,73.10
2023-04-22T22:58:16.921Z,73.20
2023-04-22T23:01:18.953Z,73.70
2023-04-22T23:04:22.823Z,73.90
2023-04-22T23:07:25.223Z,74.00
2023-04-22T23:10:27.140Z,74.40
2023-04-22T23:13:31.794Z,74.60
2023-04-22T23:16:33.864Z,74.70
2023-04-22T23:19:36.215Z,75.10
2023-04-22T23:22:41.693Z,74.80
2023-04-22T23:25:44.012Z,75.40
2023-04-22T23:28:46.243Z,76.00
2023-04-22T23:31:50.454Z,77.00
2023-04-22T23:34:53.862Z,77.10
2023-04-22T23:37:57.427Z,77.40
2023-04-22T23:40:59.362Z,78.20
2023-04-22T23:44:01.323Z,77.90
2023-04-22T23:47:03.725Z,77.90
2023-04-22T23:50:06.179Z,78.20
2023-04-22T23:53:08.332Z,78.80
2023-04-22T23:56:11.155Z,79.00
2023-04-22T23:59:13.401Z,79.10
